Time,TemperatureF,DewpointF,PressureIn,WindDirection,WindDirectionDegrees,WindSpeedMPH,WindSpeedGustMPH,Humidity,HourlyPrecipIn,Conditions,Clouds,dailyrainin,SolarRadiationWatts/m^2,SoftwareType,DateUTC
2013-02-06 00:00:00,45.9,31.1,30.07,East,81,5.8,5.8,56,0.00,CLR,,0.00,0.0,WeatherDisplay:10.37,2013-02-06 06:00:00,
2013-02-06 00:05:00,45.8,31.0,30.07,East,82,3.5,3.5,56,0.00,CLR,,0.00,0.0,WeatherDisplay:10.37,2013-02-06 06:05:00,
2013-02-06 00:10:00,45.5,31.1,30.07,East,86,3.5,3.5,57,0.00,CLR,,0.00,0.0,WeatherDisplay:10.37,2013-02-06 06:10:00,
2013-02-06 00:15:00,45.4,31.0,30.06,East,82,5.8,5.8,57,0.00,CLR,,0.00,0.0,WeatherDisplay:10.37,2013-02-06 06:15:00,
2013-02-06 00:20:00,45.3,31.0,30.07,East,85,5.0,5.0,57,0.00,CLR,,0.00,0.0,WeatherDisplay:10.37,2013-02-06 06:20:00,
2013-02-06 00:25:00,45.2,31.3,30.07,East,90,5.8,5.8,58,0.00,CLR,,0.00,0.0,WeatherDisplay:10.37,2013-02-06 06:25:00,
2013-02-06 00:30:00,45.1,31.2,30.06,East,90,3.5,3.5,58,0.00,CLR,,0.00,0.0,WeatherDisplay:10.37,2013-02-06 06:30:00,
2013-02-06 00:35:00,45.0,31.1,30.06,East,96,3.5,3.5,58,0.00,CLR,,0.00,0.0,WeatherDisplay:10.37,2013-02-06 06:35:00,
2013-02-06 00:40:00,44.8,30.9,30.06,East,92,3.5,3.5,58,0.00,CLR,,0.00,0.0,WeatherDisplay:10.37,2013-02-06 06:40:00,
2013-02-06 00:45:00,44.6,31.1,30.06,East,92,2.3,2.3,59,0.00,CLR,,0.00,0.0,WeatherDisplay:10.37,2013-02-06 06:45:00,
2013-02-06 00:50:00,44.3,30.9,30.06,East,92,3.5,3.5,59,0.00,CLR,,0.00,0.0,WeatherDisplay:10.37,2013-02-06 06:50:00,
2013-02-06 00:55:00,44.0,31.0,30.06,East,92,2.3,2.3,60,0.00,CLR,,0.00,0.0,WeatherDisplay:10.37,2013-02-06 06:55:00,
2013-02-06 01:00:00,43.6,30.6,30.06,East,92,3.5,3.5,60,0.00,CLR,,0.00,0.0,WeatherDisplay:10.37,2013-02-06 07:00:00,
2013-02-06 01:05:00,43.2,30.6,30.06,East,92,1.1,1.1,61,0.00,CLR,,0.00,0.0,WeatherDisplay:10.37,2013-02-06 07:05:00,
2013-02-06 01:10:00,42.8,30.7,30.06,East,92,2.3,2.3,62,0.00,CLR,,0.00,0.0,WeatherDisplay:10.37,2013-02-06 07:10:00,
2013-02-06 01:15:00,42.4,30.7,30.06,East,92,3.5,3.5,63,0.00,CLR,,0.00,0.0,WeatherDisplay:10.37,2013-02-06 07:15:00,
2013-02-06 01:20:00,42.0,30.7,30.05,East,92,2.3,2.3,64,0.00,CLR,,0.00,0.0,WeatherDisplay:10.37,2013-02-06 07:20:00,
2013-02-06 01:25:00,41.7,30.4,30.05,East,92,1.1,1.1,64,0.00,CLR,,0.00,0.0,WeatherDisplay:10.37,2013-02-06 07:25:00,
2013-02-06 01:30:00,41.5,30.6,30.05,East,92,2.3,2.3,65,0.00,CLR,,0.00,0.0,WeatherDisplay:10.37,2013-02-06 07:30:00,
2013-02-06 01:35:00,41.3,30.8,30.05,East,92,1.1,1.1,66,0.00,CLR,,0.00,0.0,WeatherDisplay:10.37,2013-02-06 07:35:00,
2013-02-06 01:40:00,41.0,30.5,30.05,East,92,2.3,2.3,66,0.00,CLR,,0.00,0.0,WeatherDisplay:10.37,2013-02-06 07:40:00,
2013-02-06 01:45:00,40.7,30.6,30.05,East,92,2.3,2.3,67,0.00,CLR,,0.00,0.0,WeatherDisplay:10.37,2013-02-06 07:45:00,
2013-02-06 01:50:00,40.4,30.7,30.05,East,92,1.1,1.1,68,0.00,CLR,,0.00,0.0,WeatherDisplay:10.37,2013-02-06 07:50:00,
2013-02-06 01:55:00,40.2,30.8,30.06,East,92,3.5,3.5,69,0.00,CLR,,0.00,0.0,WeatherDisplay:10.37,2013-02-06 07:55:00,
2013-02-06 02:00:00,40.2,30.8,30.06,East,92,2.3,2.3,69,0.00,CLR,,0.00,0.0,WeatherDisplay:10.37,2013-02-06 08:00:00,
2013-02-06 02:05:00,40.3,30.9,30.06,East,92,1.1,1.1,69,0.00,CLR,,0.00,0.0,WeatherDisplay:10.37,2013-02-06 08:05:00,
2013-02-06 02:10:00,40.3,30.9,30.06,East,92,1.1,1.1,69,0.00,CLR,,0.00,0.0,WeatherDisplay:10.37,2013-02-06 08:10:00,
2013-02-06 02:15:00,40.3,30.9,30.06,East,92,2.3,2.3,69,0.00,CLR,,0.00,0.0,WeatherDisplay:10.37,2013-02-06 08:15:00,
2013-02-06 02:20:00,40.3,30.9,30.06,East,92,2.3,2.3,69,0.00,CLR,,0.00,0.0,WeatherDisplay:10.37,2013-02-06 08:20:00,
2013-02-06 02:25:00,40.3,30.9,30.06,East,92,3.5,3.5,69,0.00,CLR,,0.00,0.0,WeatherDisplay:10.37,2013-02-06 08:25:00,
2013-02-06 02:30:00,40.3,30.9,30.06,East,92,1.1,1.1,69,0.00,CLR,,0.00,0.0,WeatherDisplay:10.37,2013-02-06 08:30:00,
2013-02-06 02:35:00,40.2,30.8,30.06,East,92,2.3,2.3,69,0.00,CLR,,0.00,0.0,WeatherDisplay:10.37,2013-02-06 08:35:00,
2013-02-06 02:40:00,40.0,31.0,30.05,East,94,2.3,2.3,70,0.00,CLR,,0.00,0.0,WeatherDisplay:10.37,2013-02-06 08:40:00,
2013-02-06 02:45:00,40.1,31.1,30.05,East,94,2.3,2.3,70,0.00,CLR,,0.00,0.0,WeatherDisplay:10.37,2013-02-06 08:45:00,
2013-02-06 02:50:00,40.1,31.1,30.05,East,94,2.3,2.3,70,0.00,CLR,,0.00,0.0,WeatherDisplay:10.37,2013-02-06 08:50:00,
2013-02-06 02:55:00,40.0,31.0,30.05,East,94,1.1,1.1,70,0.00,CLR,,0.00,0.0,WeatherDisplay:10.37,2013-02-06 08:55:00,
2013-02-06 03:00:00,39.9,30.9,30.05,East,94,2.3,2.3,70,0.00,CLR,,0.00,0.0,WeatherDisplay:10.37,2013-02-06 09:00:00,
2013-02-06 03:05:00,39.8,31.2,30.05,East,94,2.3,2.3,71,0.00,CLR,,0.00,0.0,WeatherDisplay:10.37,2013-02-06 09:05:00,
2013-02-06 03:10:00,39.7,31.1,30.04,East,84,3.5,3.5,71,0.00,CLR,,0.00,0.0,WeatherDisplay:10.37,2013-02-06 09:10:00,
2013-02-06 03:15:00,39.8,31.2,30.04,East,84,2.3,2.3,71,0.00,CLR,,0.00,0.0,WeatherDisplay:10.37,2013-02-06 09:15:00,
2013-02-06 03:20:00,39.8,31.2,30.04,East,84,0.0,0.0,71,0.00,CLR,,0.00,0.0,WeatherDisplay:10.37,2013-02-06 09:20:00,
2013-02-06 03:25:00,40.0,31.4,30.04,East,84,3.5,3.5,71,0.00,CLR,,0.00,0.0,WeatherDisplay:10.37,2013-02-06 09:25:00,
2013-02-06 03:30:00,40.0,31.4,30.04,East,84,2.0,2.0,71,0.00,CLR,,0.00,0.0,WeatherDisplay:10.37,2013-02-06 09:30:00,
2013-02-06 03:35:00,39.9,31.3,30.04,East,84,2.3,2.3,71,0.00,CLR,,0.00,0.0,WeatherDisplay:10.37,2013-02-06 09:35:00,
2013-02-06 03:40:00,39.9,31.3,30.03,ESE,107,3.5,3.5,71,0.00,CLR,,0.00,0.0,WeatherDisplay:10.37,2013-02-06 09:40:00,
2013-02-06 03:45:00,39.9,31.3,30.03,East,86,2.3,2.3,71,0.00,CLR,,0.00,0.0,WeatherDisplay:10.37,2013-02-06 09:45:00,
2013-02-06 03:50:00,40.0,31.4,30.03,East,87,2.3,2.3,71,0.00,CLR,,0.00,0.0,WeatherDisplay:10.37,2013-02-06 09:50:00,
2013-02-06 03:55:00,40.0,31.4,30.03,East,87,2.3,2.3,71,0.00,CLR,,0.00,0.0,WeatherDisplay:10.37,2013-02-06 09:55:00,
2013-02-06 04:00:00,39.9,31.3,30.03,East,87,1.1,1.1,71,0.00,CLR,,0.00,0.0,WeatherDisplay:10.37,2013-02-06 10:00:00,
2013-02-06 04:05:00,39.7,31.1,30.03,East,87,3.5,3.5,71,0.00,CLR,,0.00,0.0,WeatherDisplay:10.37,2013-02-06 10:05:00,
2013-02-06 04:10:00,39.6,31.0,30.03,East,87,0.0,0.0,71,0.00,CLR,,0.00,0.0,WeatherDisplay:10.37,2013-02-06 10:10:00,
2013-02-06 04:15:00,39.4,31.1,30.03,East,87,1.1,1.1,72,0.00,CLR,,0.00,0.0,WeatherDisplay:10.37,2013-02-06 10:15:00,
2013-02-06 04:20:00,39.3,31.0,30.03,East,88,2.3,2.3,72,0.00,CLR,,0.00,0.0,WeatherDisplay:10.37,2013-02-06 10:20:00,
2013-02-06 04:25:00,39.1,31.2,30.03,East,88,1.1,1.1,73,0.00,CLR,,0.00,0.0,WeatherDisplay:10.37,2013-02-06 10:25:00,
2013-02-06 04:30:00,38.9,31.0,30.04,East,88,2.3,2.3,73,0.00,CLR,,0.00,0.0,WeatherDisplay:10.37,2013-02-06 10:30:00,
2013-02-06 04:35:00,38.7,30.8,30.04,East,88,1.1,1.1,73,0.00,CLR,,0.00,0.0,WeatherDisplay:10.37,2013-02-06 10:35:00,
2013-02-06 04:40:00,38.4,30.8,30.04,East,88,0.0,0.0,74,0.00,CLR,,0.00,0.0,WeatherDisplay:10.37,2013-02-06 10:40:00,
2013-02-06 04:45:00,38.1,30.5,30.04,East,87,0.0,0.1,74,0.00,CLR,,0.00,0.0,WeatherDisplay:10.37,2013-02-06 10:45:00,
2013-02-06 04:50:00,37.8,30.6,30.04,East,88,0.0,0.0,75,0.00,CLR,,0.00,0.0,WeatherDisplay:10.37,2013-02-06 10:50:00,
2013-02-06 04:55:00,37.5,30.3,30.04,East,88,0.0,0.0,75,0.00,CLR,,0.00,0.0,WeatherDisplay:10.37,2013-02-06 10:55:00,
2013-02-06 05:00:00,37.2,30.0,30.04,East,88,1.1,0.0,75,0.00,CLR,,0.00,0.0,WeatherDisplay:10.37,2013-02-06 11:00:00,
2013-02-06 05:05:00,36.8,29.9,30.04,East,88,0.0,0.0,76,0.00,CLR,,0.00,0.0,WeatherDisplay:10.37,2013-02-06 11:05:00,
2013-02-06 05:10:00,36.6,30.1,30.04,East,88,0.0,0.0,77,0.00,CLR,,0.00,0.0,WeatherDisplay:10.37,2013-02-06 11:10:00,
2013-02-06 05:15:00,36.4,30.2,30.04,East,88,1.1,0.0,78,0.00,CLR,,0.00,0.0,WeatherDisplay:10.37,2013-02-06 11:15:00,
2013-02-06 05:20:00,36.2,30.3,30.04,East,88,1.1,1.1,79,0.00,CLR,,0.00,0.0,WeatherDisplay:10.37,2013-02-06 11:20:00,
2013-02-06 05:25:00,36.3,30.7,30.04,SE,143,4.0,4.0,80,0.00,CLR,,0.00,0.0,WeatherDisplay:10.37,2013-02-06 11:25:00,
2013-02-06 05:30:00,36.5,30.9,30.04,ESE,119,4.0,4.0,80,0.00,CLR,,0.00,0.0,WeatherDisplay:10.37,2013-02-06 11:30:00,
2013-02-06 05:35:00,37.0,31.4,30.04,SE,132,3.5,3.5,80,0.00,CLR,,0.00,0.0,WeatherDisplay:10.37,2013-02-06 11:35:00,
2013-02-06 05:40:00,37.4,31.8,30.04,ESE,123,2.0,2.0,80,0.00,CLR,,0.00,0.0,WeatherDisplay:10.37,2013-02-06 11:40:00,
2013-02-06 05:45:00,37.9,32.3,30.04,SE,136,4.6,4.6,80,0.00,CLR,,0.00,0.0,WeatherDisplay:10.37,2013-02-06 11:45:00,
2013-02-06 05:50:00,38.5,32.2,30.03,SE,126,5.8,5.8,78,0.00,CLR,,0.00,0.0,WeatherDisplay:10.37,2013-02-06 11:50:00,
2013-02-06 05:55:00,39.1,32.5,30.03,SE,142,3.5,3.5,77,0.00,CLR,,0.00,0.0,WeatherDisplay:10.37,2013-02-06 11:55:00,
2013-02-06 06:00:00,39.6,32.7,30.03,SE,135,4.0,4.0,76,0.00,CLR,,0.00,0.0,WeatherDisplay:10.37,2013-02-06 12:00:00,
2013-02-06 06:05:00,39.8,32.5,30.03,SE,134,4.0,4.0,75,0.00,CLR,,0.00,0.0,WeatherDisplay:10.37,2013-02-06 12:05:00,
2013-02-06 06:10:00,40.0,32.7,30.03,ESE,117,4.6,4.6,75,0.00,CLR,,0.00,0.0,WeatherDisplay:10.37,2013-02-06 12:10:00,
2013-02-06 06:15:00,40.2,32.6,30.03,ESE,109,6.9,6.9,74,0.00,CLR,,0.00,0.0,WeatherDisplay:10.37,2013-02-06 12:15:00,
2013-02-06 06:20:00,40.3,32.7,30.03,SE,134,4.0,4.0,74,0.00,CLR,,0.00,0.0,WeatherDisplay:10.37,2013-02-06 12:20:00,
2013-02-06 06:25:00,40.4,32.4,30.03,SE,146,8.1,8.1,73,0.00,CLR,,0.00,0.0,WeatherDisplay:10.37,2013-02-06 12:25:00,
2013-02-06 06:30:00,40.4,32.4,30.03,SE,138,3.5,3.5,73,0.00,CLR,,0.00,0.0,WeatherDisplay:10.37,2013-02-06 12:30:00,
2013-02-06 06:35:00,40.4,32.4,30.03,SE,132,4.0,4.0,73,0.00,CLR,,0.00,0.0,WeatherDisplay:10.37,2013-02-06 12:35:00,
2013-02-06 06:40:00,40.4,32.4,30.03,ESE,123,4.6,4.6,73,0.00,CLR,,0.00,0.0,WeatherDisplay:10.37,2013-02-06 12:40:00,
2013-02-06 06:45:00,40.4,32.4,30.03,SE,136,3.5,3.5,73,0.00,CLR,,0.00,0.0,WeatherDisplay:10.37,2013-02-06 12:45:00,
2013-02-06 06:50:00,40.2,32.2,30.03,SE,128,4.6,4.6,73,0.00,CLR,,0.00,0.0,WeatherDisplay:10.37,2013-02-06 12:50:00,
2013-02-06 06:55:00,40.2,32.6,30.03,SE,142,2.3,2.3,74,0.00,CLR,,0.00,0.0,WeatherDisplay:10.37,2013-02-06 12:55:00,
2013-02-06 07:00:00,40.1,32.5,30.03,SE,131,3.0,3.0,74,0.00,CLR,,0.00,0.0,WeatherDisplay:10.37,2013-02-06 13:00:00,
2013-02-06 07:05:00,40.1,32.5,30.03,SE,139,4.6,4.6,74,0.00,CLR,,0.00,0.0,WeatherDisplay:10.37,2013-02-06 13:05:00,
2013-02-06 07:10:00,40.0,32.4,30.03,SSE,148,4.6,4.6,74,0.00,CLR,,0.00,0.0,WeatherDisplay:10.37,2013-02-06 13:10:00,
2013-02-06 07:15:00,39.9,32.3,30.02,SE,143,2.0,2.0,74,0.00,CLR,,0.00,0.0,WeatherDisplay:10.37,2013-02-06 13:15:00,
2013-02-06 07:20:00,39.8,32.5,30.02,SE,143,3.5,3.5,75,0.00,CLR,,0.00,0.0,WeatherDisplay:10.37,2013-02-06 13:20:00,
2013-02-06 07:25:00,39.8,32.5,30.02,SE,134,3.5,3.5,75,0.00,CLR,,0.00,0.0,WeatherDisplay:10.37,2013-02-06 13:25:00,
2013-02-06 07:30:00,39.7,32.4,30.02,ESE,123,3.5,3.5,75,0.00,OVC,,0.00,5.0,WeatherDisplay:10.37,2013-02-06 13:30:00,
2013-02-06 07:35:00,39.7,32.4,30.02,SE,126,2.3,2.3,75,0.00,CLR,,0.00,7.0,WeatherDisplay:10.37,2013-02-06 13:35:00,
2013-02-06 07:40:00,39.7,32.4,30.02,SE,141,3.5,3.5,75,0.00,SCT,,0.00,11.0,WeatherDisplay:10.37,2013-02-06 13:40:00,
2013-02-06 07:45:00,39.6,32.7,30.03,SE,133,3.0,3.0,76,0.00,BKN,,0.00,12.0,WeatherDisplay:10.37,2013-02-06 13:45:00,
2013-02-06 07:50:00,39.5,32.6,30.02,ESE,121,4.6,4.6,76,0.00,BKN,,0.00,18.0,WeatherDisplay:10.37,2013-02-06 13:50:00,
2013-02-06 07:55:00,39.7,32.8,30.03,SE,126,3.5,3.5,76,0.00,SCT,,0.00,28.0,WeatherDisplay:10.37,2013-02-06 13:55:00,
2013-02-06 08:00:00,39.8,32.8,30.03,SSE,150,3.5,3.5,76,0.00,BKN,,0.00,23.0,WeatherDisplay:10.37,2013-02-06 14:00:00,
2013-02-06 08:05:00,39.9,32.6,30.02,SSE,153,3.5,3.5,75,0.00,BKN,,0.00,23.0,WeatherDisplay:10.37,2013-02-06 14:05:00,
2013-02-06 08:10:00,40.0,32.7,30.02,South,171,5.8,5.8,75,0.00,BKN,,0.00,26.0,WeatherDisplay:10.37,2013-02-06 14:10:00,
2013-02-06 08:15:00,40.0,32.7,30.02,ESE,112,4.0,4.0,75,0.00,BKN,,0.00,30.0,WeatherDisplay:10.37,2013-02-06 14:15:00,
2013-02-06 08:20:00,39.9,32.6,30.02,SSE,159,4.6,4.6,75,0.00,BKN,,0.00,42.0,WeatherDisplay:10.37,2013-02-06 14:20:00,
2013-02-06 08:25:00,40.0,32.7,30.02,SSE,156,3.5,3.5,75,0.00,BKN,,0.00,47.0,WeatherDisplay:10.37,2013-02-06 14:25:00,
2013-02-06 08:30:00,40.2,32.9,30.02,SE,146,5.8,5.8,75,0.00,BKN,,0.00,47.0,WeatherDisplay:10.37,2013-02-06 14:30:00,
2013-02-06 08:35:00,40.4,32.8,30.02,SSE,150,5.8,5.8,74,0.00,BKN,,0.00,54.0,WeatherDisplay:10.37,2013-02-06 14:35:00,
2013-02-06 08:40:00,40.7,33.1,30.02,SSW,193,6.9,6.9,74,0.00,BKN,,0.00,39.0,WeatherDisplay:10.37,2013-02-06 14:40:00,
2013-02-06 08:45:00,41.1,33.1,30.02,SE,145,5.8,5.8,73,0.00,BKN,,0.00,56.0,WeatherDisplay:10.37,2013-02-06 14:45:00,
2013-02-06 08:50:00,41.4,33.4,30.02,South,170,4.0,4.0,73,0.00,BKN,,0.00,49.0,WeatherDisplay:10.37,2013-02-06 14:50:00,
2013-02-06 08:55:00,41.9,33.5,30.01,SSE,155,5.8,5.8,72,0.00,BKN,,0.00,60.0,WeatherDisplay:10.37,2013-02-06 14:55:00,
2013-02-06 09:00:00,42.4,34.0,30.01,SE,138,5.8,5.8,72,0.00,BKN,,0.00,60.0,WeatherDisplay:10.37,2013-02-06 15:00:00,
2013-02-06 09:05:00,42.9,34.1,30.01,SSW,200,6.9,6.9,71,0.00,BKN,,0.00,63.0,WeatherDisplay:10.37,2013-02-06 15:05:00,
2013-02-06 09:10:00,43.6,34.5,30.01,SSW,205,5.8,5.8,70,0.00,BKN,,0.00,90.0,WeatherDisplay:10.37,2013-02-06 15:10:00,
2013-02-06 09:15:00,44.2,34.3,30.01,SE,137,9.2,9.2,68,0.00,BKN,,0.00,91.0,WeatherDisplay:10.37,2013-02-06 15:15:00,
2013-02-06 09:20:00,44.6,34.7,30.01,South,178,7.0,7.0,68,0.00,BKN,,0.00,132.0,WeatherDisplay:10.37,2013-02-06 15:20:00,
2013-02-06 09:25:00,45.0,34.7,30.01,SSW,203,10.4,10.4,67,0.00,BKN,,0.00,91.0,WeatherDisplay:10.37,2013-02-06 15:25:00,
2013-02-06 09:30:00,45.4,35.1,30.01,SSE,154,5.8,5.8,67,0.00,BKN,,0.00,141.0,WeatherDisplay:10.37,2013-02-06 15:30:00,
2013-02-06 09:35:00,45.8,35.1,30.01,SSE,157,11.5,11.5,66,0.00,SCT,,0.00,102.0,WeatherDisplay:10.37,2013-02-06 15:35:00,
2013-02-06 09:40:00,46.3,35.2,30.01,SSE,161,11.5,11.5,65,0.00,SCT,,0.00,183.0,WeatherDisplay:10.37,2013-02-06 15:40:00,
2013-02-06 09:45:00,46.8,35.6,30.01,South,186,5.8,5.8,65,0.00,BKN,,0.00,105.0,WeatherDisplay:10.37,2013-02-06 15:45:00,
2013-02-06 09:50:00,47.2,35.6,30.01,South,169,10.4,10.4,64,0.00,BKN,,0.00,123.0,WeatherDisplay:10.37,2013-02-06 15:50:00,
2013-02-06 09:55:00,47.7,36.1,30.01,SE,128,8.1,8.1,64,0.00,SCT,,0.00,128.0,WeatherDisplay:10.37,2013-02-06 15:55:00,
2013-02-06 10:00:00,48.5,36.5,30.00,SSE,158,8.1,8.1,63,0.00,FEW,,0.00,281.0,WeatherDisplay:10.37,2013-02-06 16:00:00,
2013-02-06 10:05:00,49.2,36.7,30.00,South,171,9.2,9.2,62,0.00,SCT,,0.00,260.0,WeatherDisplay:10.37,2013-02-06 16:05:00,
2013-02-06 10:10:00,49.9,37.0,30.00,SSE,162,8.1,8.1,61,0.00,SCT,,0.00,211.0,WeatherDisplay:10.37,2013-02-06 16:10:00,
2013-02-06 10:15:00,50.4,37.0,30.00,SSW,192,8.1,8.1,60,0.00,CLR,,0.00,264.0,WeatherDisplay:10.37,2013-02-06 16:15:00,
2013-02-06 10:20:00,50.7,36.9,30.00,South,190,8.1,8.1,59,0.00,SCT,,0.00,204.0,WeatherDisplay:10.37,2013-02-06 16:20:00,
2013-02-06 10:25:00,51.0,37.2,30.00,South,175,6.9,6.9,59,0.00,BKN,,0.00,211.0,WeatherDisplay:10.37,2013-02-06 16:25:00,
2013-02-06 10:30:00,51.2,37.4,30.00,SE,137,9.2,9.2,59,0.00,BKN,,0.00,186.0,WeatherDisplay:10.37,2013-02-06 16:30:00,
2013-02-06 10:35:00,51.5,37.6,29.99,SE,144,6.9,6.9,59,0.00,BKN,,0.00,223.0,WeatherDisplay:10.37,2013-02-06 16:35:00,
2013-02-06 10:40:00,52.0,38.1,29.99,SE,142,4.6,4.6,59,0.00,SCT,,0.00,162.0,WeatherDisplay:10.37,2013-02-06 16:40:00,
2013-02-06 10:45:00,52.7,38.3,30.00,SSE,150,6.9,6.9,58,0.00,BKN,,0.00,114.0,WeatherDisplay:10.37,2013-02-06 16:45:00,
2013-02-06 10:50:00,53.0,38.2,29.99,South,181,6.9,6.9,57,0.00,BKN,,0.00,128.0,WeatherDisplay:10.37,2013-02-06 16:50:00,
2013-02-06 10:55:00,53.2,38.4,29.99,SSW,193,9.2,9.2,57,0.00,BKN,,0.00,204.0,WeatherDisplay:10.37,2013-02-06 16:55:00,
2013-02-06 11:00:00,53.2,38.8,29.99,SSE,159,8.1,8.1,58,0.00,BKN,,0.00,155.0,WeatherDisplay:10.37,2013-02-06 17:00:00,
2013-02-06 11:05:00,53.3,38.9,29.99,SSE,162,5.8,5.8,58,0.00,BKN,,0.00,111.0,WeatherDisplay:10.37,2013-02-06 17:05:00,
2013-02-06 11:10:00,53.3,38.9,29.99,South,177,10.4,10.4,58,0.00,BKN,,0.00,144.0,WeatherDisplay:10.37,2013-02-06 17:10:00,
2013-02-06 11:15:00,53.4,39.9,29.99,South,169,15.0,15.0,60,0.00,BKN,,0.00,137.0,WeatherDisplay:10.37,2013-02-06 17:15:00,
2013-02-06 11:20:00,53.6,41.3,29.99,SSE,156,9.2,9.2,63,0.00,BKN,,0.00,125.0,WeatherDisplay:10.37,2013-02-06 17:20:00,
2013-02-06 11:25:00,53.7,43.0,29.99,SSW,209,17.3,17.3,67,0.00,BKN,,0.00,160.0,WeatherDisplay:10.37,2013-02-06 17:25:00,
2013-02-06 11:30:00,53.6,43.3,29.99,South,189,11.5,11.5,68,0.00,BKN,,0.00,125.0,WeatherDisplay:10.37,2013-02-06 17:30:00,
2013-02-06 11:35:00,53.6,43.3,29.98,SSE,168,15.0,15.0,68,0.00,BKN,,0.00,151.0,WeatherDisplay:10.37,2013-02-06 17:35:00,
2013-02-06 11:40:00,53.7,43.4,29.98,SSE,155,9.2,9.2,68,0.00,BKN,,0.00,243.0,WeatherDisplay:10.37,2013-02-06 17:40:00,
2013-02-06 11:45:00,53.9,43.6,29.98,South,181,5.8,5.8,68,0.00,BKN,,0.00,192.0,WeatherDisplay:10.37,2013-02-06 17:45:00,
2013-02-06 11:50:00,54.2,43.5,29.97,South,171,11.5,11.5,67,0.00,BKN,,0.00,144.0,WeatherDisplay:10.37,2013-02-06 17:50:00,
2013-02-06 11:55:00,54.4,44.1,29.97,SE,133,15.0,15.0,68,0.00,SCT,,0.00,264.0,WeatherDisplay:10.37,2013-02-06 17:55:00,
2013-02-06 12:00:00,54.8,44.8,29.96,South,173,13.8,13.8,69,0.00,SCT,,0.00,292.0,WeatherDisplay:10.37,2013-02-06 18:00:00,
2013-02-06 12:05:00,55.3,46.4,29.96,South,181,18.4,18.4,72,0.00,BKN,,0.00,156.0,WeatherDisplay:10.37,2013-02-06 18:05:00,
2013-02-06 12:10:00,55.6,46.7,29.95,SSE,165,6.0,6.0,72,0.00,BKN,,0.00,260.0,WeatherDisplay:10.37,2013-02-06 18:10:00,
2013-02-06 12:15:00,55.9,47.4,29.95,SSE,162,16.1,16.1,73,0.00,BKN,,0.00,274.0,WeatherDisplay:10.37,2013-02-06 18:15:00,
2013-02-06 12:20:00,56.2,47.7,29.94,SE,140,11.5,11.5,73,0.00,BKN,,0.00,301.0,WeatherDisplay:10.37,2013-02-06 18:20:00,
2013-02-06 12:25:00,56.7,48.1,29.94,SE,143,6.9,6.9,73,0.00,SCT,,0.00,432.0,WeatherDisplay:10.37,2013-02-06 18:25:00,
2013-02-06 12:30:00,57.4,48.4,29.93,SW,215,16.1,16.1,72,0.00,SCT,,0.00,649.0,WeatherDisplay:10.37,2013-02-06 18:30:00,
2013-02-06 12:35:00,58.2,49.6,29.93,South,179,16.1,16.1,73,0.00,BKN,,0.00,257.0,WeatherDisplay:10.37,2013-02-06 18:35:00,
2013-02-06 12:40:00,58.4,49.8,29.93,SSE,155,9.2,9.2,73,0.00,BKN,,0.00,338.0,WeatherDisplay:10.37,2013-02-06 18:40:00,
2013-02-06 12:45:00,58.5,49.9,29.93,SE,130,10.4,10.4,73,0.00,BKN,,0.00,190.0,WeatherDisplay:10.37,2013-02-06 18:45:00,
2013-02-06 12:50:00,58.3,49.7,29.92,South,180,12.7,12.7,73,0.00,BKN,,0.00,142.0,WeatherDisplay:10.37,2013-02-06 18:50:00,
2013-02-06 12:55:00,57.8,49.6,29.92,SSW,207,10.0,10.0,74,0.00,BKN,,0.00,113.0,WeatherDisplay:10.37,2013-02-06 18:55:00,
2013-02-06 13:00:00,57.5,49.6,29.92,South,169,9.2,9.2,75,0.00,BKN,,0.00,322.0,WeatherDisplay:10.37,2013-02-06 19:00:00,
2013-02-06 13:05:00,57.5,50.0,29.92,South,169,19.6,19.6,76,0.00,BKN,,0.00,137.0,WeatherDisplay:10.37,2013-02-06 19:05:00,
2013-02-06 13:10:00,57.5,50.0,29.91,South,179,13.8,13.8,76,0.00,BKN,,0.00,225.0,WeatherDisplay:10.37,2013-02-06 19:10:00,
2013-02-06 13:15:00,57.6,50.1,29.90,SE,145,11.5,11.5,76,0.00,BKN,,0.00,234.0,WeatherDisplay:10.37,2013-02-06 19:15:00,
2013-02-06 13:20:00,57.7,50.2,29.90,ESE,114,9.0,9.0,76,0.00,BKN,,0.00,179.0,WeatherDisplay:10.37,2013-02-06 19:20:00,
2013-02-06 13:25:00,57.9,50.4,29.90,South,186,9.0,9.0,76,0.00,BKN,,0.00,202.0,WeatherDisplay:10.37,2013-02-06 19:25:00,
2013-02-06 13:30:00,58.0,50.8,29.89,SSE,157,6.9,6.9,77,0.00,BKN,,0.00,202.0,WeatherDisplay:10.37,2013-02-06 19:30:00,
2013-02-06 13:35:00,58.3,51.1,29.89,SE,142,14.0,14.0,77,0.00,BKN,,0.00,206.0,WeatherDisplay:10.37,2013-02-06 19:35:00,
2013-02-06 13:40:00,58.4,51.6,29.89,SSE,162,11.0,11.0,78,0.00,BKN,,0.00,185.0,WeatherDisplay:10.37,2013-02-06 19:40:00,
2013-02-06 13:45:00,58.4,51.6,29.89,ESE,121,18.4,18.4,78,0.00,BKN,,0.00,148.0,WeatherDisplay:10.37,2013-02-06 19:45:00,
2013-02-06 13:50:00,58.1,51.6,29.89,SSE,158,11.5,11.5,79,0.00,BKN,,0.00,90.0,WeatherDisplay:10.37,2013-02-06 19:50:00,
2013-02-06 13:55:00,57.6,51.1,29.89,South,184,13.8,13.8,79,0.00,BKN,,0.00,102.0,WeatherDisplay:10.37,2013-02-06 19:55:00,
2013-02-06 14:00:00,57.3,51.2,29.88,South,182,12.7,12.7,80,0.00,BKN,,0.00,102.0,WeatherDisplay:10.37,2013-02-06 20:00:00,
2013-02-06 14:05:00,57.1,51.3,29.88,South,180,20.7,20.7,81,0.00,BKN,,0.00,83.0,WeatherDisplay:10.37,2013-02-06 20:05:00,
2013-02-06 14:10:00,57.0,51.6,29.88,SE,146,16.1,16.1,82,0.00,BKN,,0.00,128.0,WeatherDisplay:10.37,2013-02-06 20:10:00,
2013-02-06 14:15:00,56.9,51.8,29.88,SSE,156,12.7,12.7,83,0.00,BKN,,0.00,90.0,WeatherDisplay:10.37,2013-02-06 20:15:00,
2013-02-06 14:20:00,56.8,51.7,29.88,ESE,120,17.3,17.3,83,0.00,BKN,,0.00,118.0,WeatherDisplay:10.37,2013-02-06 20:20:00,
2013-02-06 14:25:00,56.6,51.8,29.88,SSE,165,19.6,19.6,84,0.00,BKN,,0.00,97.0,WeatherDisplay:10.37,2013-02-06 20:25:00,
2013-02-06 14:30:00,56.6,51.8,29.88,South,187,6.9,6.9,84,0.00,BKN,,0.00,84.0,WeatherDisplay:10.37,2013-02-06 20:30:00,
2013-02-06 14:35:00,56.6,51.8,29.88,SE,146,11.0,11.0,84,0.00,BKN,,0.00,98.0,WeatherDisplay:10.37,2013-02-06 20:35:00,
2013-02-06 14:40:00,56.5,51.7,29.87,South,181,17.3,17.3,84,0.00,BKN,,0.00,83.0,WeatherDisplay:10.37,2013-02-06 20:40:00,
2013-02-06 14:45:00,56.4,51.9,29.87,SSE,166,12.7,12.7,85,0.00,BKN,,0.00,77.0,WeatherDisplay:10.37,2013-02-06 20:45:00,
2013-02-06 14:50:00,56.4,51.9,29.87,SSE,163,10.4,10.4,85,0.00,BKN,,0.00,127.0,WeatherDisplay:10.37,2013-02-06 20:50:00,
2013-02-06 14:55:00,56.4,52.3,29.87,SSE,163,9.2,9.2,86,0.00,BKN,,0.00,91.0,WeatherDisplay:10.37,2013-02-06 20:55:00,
2013-02-06 15:00:00,56.4,52.3,29.87,SSE,164,12.7,12.7,86,0.00,BKN,,0.00,149.0,WeatherDisplay:10.37,2013-02-06 21:00:00,
2013-02-06 15:05:00,56.3,52.2,29.87,SSE,165,10.4,10.4,86,0.00,BKN,,0.00,81.0,WeatherDisplay:10.37,2013-02-06 21:05:00,
2013-02-06 15:10:00,56.3,52.2,29.87,SSW,194,12.0,12.0,86,0.00,BKN,,0.00,84.0,WeatherDisplay:10.37,2013-02-06 21:10:00,
2013-02-06 15:15:00,56.4,52.3,29.86,East,81,10.4,10.4,86,0.00,BKN,,0.00,98.0,WeatherDisplay:10.37,2013-02-06 21:15:00,
2013-02-06 15:20:00,56.4,52.3,29.86,South,172,9.2,9.2,86,0.00,BKN,,0.00,63.0,WeatherDisplay:10.37,2013-02-06 21:20:00,
2013-02-06 15:25:00,56.4,52.3,29.86,South,177,10.4,10.4,86,0.00,BKN,,0.00,62.0,WeatherDisplay:10.37,2013-02-06 21:25:00,
2013-02-06 15:30:00,56.5,52.7,29.86,SE,128,8.1,8.1,87,0.00,BKN,,0.00,60.0,WeatherDisplay:10.37,2013-02-06 21:30:00,
2013-02-06 15:35:00,56.4,52.6,29.85,South,178,9.2,9.2,87,0.00,BKN,,0.00,49.0,WeatherDisplay:10.37,2013-02-06 21:35:00,
2013-02-06 15:40:00,56.4,52.9,29.85,ESE,123,4.0,4.8,88,0.00,BKN,,0.00,63.0,WeatherDisplay:10.37,2013-02-06 21:40:00,
2013-02-06 15:45:00,56.4,52.9,29.85,South,185,12.0,12.0,88,0.00,BKN,,0.00,51.0,WeatherDisplay:10.37,2013-02-06 21:45:00,
2013-02-06 15:50:00,56.4,52.9,29.85,SE,135,11.5,11.5,88,0.00,BKN,,0.00,39.0,WeatherDisplay:10.37,2013-02-06 21:50:00,
2013-02-06 15:55:00,56.4,52.9,29.85,SE,146,9.0,9.0,88,0.00,BKN,,0.00,39.0,WeatherDisplay:10.37,2013-02-06 21:55:00,
2013-02-06 16:00:00,56.3,53.1,29.84,South,184,9.2,9.2,89,0.00,BKN,,0.00,53.0,WeatherDisplay:10.37,2013-02-06 22:00:00,
2013-02-06 16:05:00,56.2,53.3,29.85,SSW,195,11.5,11.5,90,0.00,BKN,,0.00,46.0,WeatherDisplay:10.37,2013-02-06 22:05:00,
2013-02-06 16:10:00,56.1,53.2,29.85,ESE,119,6.9,6.9,90,0.00,BKN,,0.00,42.0,WeatherDisplay:10.37,2013-02-06 22:10:00,
2013-02-06 16:15:00,56.0,53.4,29.85,SSE,148,5.8,5.8,91,0.00,BKN,,0.00,40.0,WeatherDisplay:10.37,2013-02-06 22:15:00,
2013-02-06 16:20:00,55.9,53.3,29.85,SSW,193,6.9,6.9,91,0.00,BKN,,0.00,39.0,WeatherDisplay:10.37,2013-02-06 22:20:00,
2013-02-06 16:25:00,55.8,53.5,29.85,SE,130,6.0,6.0,92,0.00,BKN,,0.00,28.0,WeatherDisplay:10.37,2013-02-06 22:25:00,
2013-02-06 16:30:00,55.7,53.4,29.85,SSE,167,8.1,8.1,92,0.00,BKN,,0.00,25.0,WeatherDisplay:10.37,2013-02-06 22:30:00,
2013-02-06 16:35:00,55.6,53.3,29.85,SSE,163,9.2,9.2,92,0.00,BKN,,0.00,23.0,WeatherDisplay:10.37,2013-02-06 22:35:00,
2013-02-06 16:40:00,55.5,53.5,29.85,SSE,151,6.9,6.9,93,0.00,BKN,,0.00,21.0,WeatherDisplay:10.37,2013-02-06 22:40:00,
2013-02-06 16:45:00,55.5,53.5,29.85,SSE,163,8.1,8.1,93,0.00,BKN,,0.00,18.0,WeatherDisplay:10.37,2013-02-06 22:45:00,
2013-02-06 16:50:00,55.4,53.7,29.85,SSE,165,6.9,6.9,94,0.00,BKN,,0.00,18.0,WeatherDisplay:10.37,2013-02-06 22:50:00,
2013-02-06 16:55:00,55.4,53.7,29.85,SSE,158,11.5,11.5,94,0.00,BKN,,0.00,23.0,WeatherDisplay:10.37,2013-02-06 22:55:00,
2013-02-06 17:00:00,55.3,53.6,29.85,SE,130,8.1,8.1,94,0.00,BKN,,0.00,18.0,WeatherDisplay:10.37,2013-02-06 23:00:00,
2013-02-06 17:05:00,55.3,53.6,29.84,SSE,151,12.7,12.7,94,0.00,BKN,,0.00,16.0,WeatherDisplay:10.37,2013-02-06 23:05:00,
2013-02-06 17:10:00,55.2,53.5,29.85,South,175,6.0,6.0,94,0.00,BKN,,0.00,12.0,WeatherDisplay:10.37,2013-02-06 23:10:00,
2013-02-06 17:15:00,55.1,53.4,29.84,South,180,8.1,8.1,94,0.00,BKN,,0.00,11.0,WeatherDisplay:10.37,2013-02-06 23:15:00,
2013-02-06 17:20:00,55.1,53.4,29.84,South,177,9.2,9.2,94,0.00,BKN,,0.00,11.0,WeatherDisplay:10.37,2013-02-06 23:20:00,
2013-02-06 17:25:00,55.0,53.6,29.84,South,184,5.8,5.8,95,0.00,BKN,,0.00,7.0,WeatherDisplay:10.37,2013-02-06 23:25:00,
2013-02-06 17:30:00,55.0,53.6,29.84,South,178,8.0,8.0,95,0.00,BKN,,0.00,7.0,WeatherDisplay:10.37,2013-02-06 23:30:00,
2013-02-06 17:35:00,55.0,53.6,29.84,SSE,161,4.6,4.6,95,0.00,BKN,,0.00,7.0,WeatherDisplay:10.37,2013-02-06 23:35:00,
2013-02-06 17:40:00,54.9,53.5,29.84,South,182,6.9,6.9,95,0.00,BKN,,0.00,5.0,WeatherDisplay:10.37,2013-02-06 23:40:00,
2013-02-06 17:45:00,54.9,53.5,29.84,ESE,123,4.6,4.6,95,0.00,BKN,,0.00,0.0,WeatherDisplay:10.37,2013-02-06 23:45:00,
2013-02-06 17:50:00,54.8,53.4,29.84,South,173,4.6,4.6,95,0.00,OVC,,0.00,0.0,WeatherDisplay:10.37,2013-02-06 23:50:00,
2013-02-06 17:55:00,54.8,53.7,29.84,South,183,9.2,9.2,96,0.00,OVC,,0.00,0.0,WeatherDisplay:10.37,2013-02-06 23:55:00,
2013-02-06 18:00:00,54.8,53.7,29.84,SSE,160,4.6,4.6,96,0.00,CLR,,0.00,0.0,WeatherDisplay:10.37,2013-02-07 00:00:00,
2013-02-06 18:05:00,54.8,53.7,29.84,South,188,9.2,9.2,96,0.00,CLR,,0.00,0.0,WeatherDisplay:10.37,2013-02-07 00:05:00,
2013-02-06 18:10:00,54.7,53.6,29.84,SE,143,4.6,4.6,96,0.00,CLR,,0.00,0.0,WeatherDisplay:10.37,2013-02-07 00:10:00,
2013-02-06 18:15:00,54.7,53.6,29.84,South,169,6.9,6.9,96,0.00,CLR,,0.00,0.0,WeatherDisplay:10.37,2013-02-07 00:15:00,
2013-02-06 18:20:00,54.8,53.7,29.84,SSE,163,5.8,5.8,96,0.00,CLR,,0.00,0.0,WeatherDisplay:10.37,2013-02-07 00:20:00,
2013-02-06 18:25:00,54.8,53.7,29.84,South,177,3.5,3.5,96,0.00,CLR,,0.00,0.0,WeatherDisplay:10.37,2013-02-07 00:25:00,
2013-02-06 18:30:00,54.8,53.7,29.84,SSE,162,4.0,4.0,96,0.00,CLR,,0.00,0.0,WeatherDisplay:10.37,2013-02-07 00:30:00,
2013-02-06 18:35:00,54.8,53.7,29.85,South,178,4.6,4.6,96,0.00,CLR,,0.00,0.0,WeatherDisplay:10.37,2013-02-07 00:35:00,
2013-02-06 18:40:00,54.8,53.7,29.85,South,182,4.6,4.6,96,0.00,CLR,,0.00,0.0,WeatherDisplay:10.37,2013-02-07 00:40:00,
2013-02-06 18:45:00,54.8,53.7,29.85,SSE,151,3.5,3.5,96,0.00,CLR,,0.00,0.0,WeatherDisplay:10.37,2013-02-07 00:45:00,
2013-02-06 18:50:00,54.8,53.7,29.84,SSE,161,8.1,8.1,96,0.00,CLR,,0.00,0.0,WeatherDisplay:10.37,2013-02-07 00:50:00,
2013-02-06 18:55:00,54.8,53.7,29.84,South,178,3.0,3.0,96,0.00,CLR,,0.00,0.0,WeatherDisplay:10.37,2013-02-07 00:55:00,
2013-02-06 19:00:00,54.8,53.7,29.84,SSE,159,6.9,6.9,96,0.00,CLR,,0.00,0.0,WeatherDisplay:10.37,2013-02-07 01:00:00,
2013-02-06 19:05:00,54.9,53.8,29.84,SSE,154,10.4,10.4,96,0.00,CLR,,0.00,0.0,WeatherDisplay:10.37,2013-02-07 01:05:00,
2013-02-06 19:10:00,54.9,54.1,29.84,South,186,6.9,6.9,97,0.00,CLR,,0.00,0.0,WeatherDisplay:10.37,2013-02-07 01:10:00,
2013-02-06 19:15:00,55.0,54.2,29.84,ESE,123,6.9,6.9,97,0.00,CLR,,0.00,0.0,WeatherDisplay:10.37,2013-02-07 01:15:00,
2013-02-06 19:20:00,55.0,54.2,29.84,SSE,165,3.5,3.5,97,0.00,CLR,,0.00,0.0,WeatherDisplay:10.37,2013-02-07 01:20:00,
2013-02-06 19:25:00,55.1,54.3,29.84,SSE,166,9.2,9.2,97,0.00,CLR,,0.00,0.0,WeatherDisplay:10.37,2013-02-07 01:25:00,
2013-02-06 19:30:00,55.1,54.3,29.84,SSE,150,8.0,8.0,97,0.00,CLR,,0.00,0.0,WeatherDisplay:10.37,2013-02-07 01:30:00,
2013-02-06 19:35:00,55.1,54.3,29.84,SSE,165,5.8,5.8,97,0.00,CLR,,0.00,0.0,WeatherDisplay:10.37,2013-02-07 01:35:00,
2013-02-06 19:40:00,55.2,54.4,29.84,ESE,118,9.2,9.2,97,0.00,CLR,,0.00,0.0,WeatherDisplay:10.37,2013-02-07 01:40:00,
2013-02-06 19:45:00,55.2,54.4,29.84,SSE,157,6.9,6.9,97,0.00,CLR,,0.00,0.0,WeatherDisplay:10.37,2013-02-07 01:45:00,
2013-02-06 19:50:00,55.2,54.4,29.84,SSE,154,10.4,10.4,97,0.00,CLR,,0.00,0.0,WeatherDisplay:10.37,2013-02-07 01:50:00,
2013-02-06 19:55:00,55.3,54.5,29.84,ESE,117,6.9,6.9,97,0.00,CLR,,0.00,0.0,WeatherDisplay:10.37,2013-02-07 01:55:00,
2013-02-06 20:00:00,55.3,54.5,29.84,SSE,148,6.0,6.0,97,0.00,CLR,,0.00,0.0,WeatherDisplay:10.37,2013-02-07 02:00:00,
2013-02-06 20:05:00,55.3,54.5,29.84,South,171,6.9,6.9,97,0.00,CLR,,0.00,0.0,WeatherDisplay:10.37,2013-02-07 02:05:00,
2013-02-06 20:10:00,55.4,54.6,29.84,SSE,157,8.1,8.1,97,0.00,CLR,,0.00,0.0,WeatherDisplay:10.37,2013-02-07 02:10:00,
2013-02-06 20:15:00,55.5,54.7,29.84,SE,140,8.1,8.1,97,0.00,CLR,,0.00,0.0,WeatherDisplay:10.37,2013-02-07 02:15:00,
2013-02-06 20:20:00,55.5,54.7,29.84,SE,145,6.9,6.9,97,0.00,CLR,,0.00,0.0,WeatherDisplay:10.37,2013-02-07 02:20:00,
2013-02-06 20:25:00,55.6,54.8,29.84,SSE,154,9.2,9.2,97,0.00,CLR,,0.00,0.0,WeatherDisplay:10.37,2013-02-07 02:25:00,
2013-02-06 20:30:00,55.7,54.6,29.84,SE,142,11.5,11.5,96,0.00,CLR,,0.00,0.0,WeatherDisplay:10.37,2013-02-07 02:30:00,
2013-02-06 20:35:00,55.7,54.6,29.84,SE,144,11.0,11.0,96,0.00,CLR,,0.00,0.0,WeatherDisplay:10.37,2013-02-07 02:35:00,
2013-02-06 20:40:00,55.7,54.3,29.84,SE,137,11.5,11.5,95,0.00,CLR,,0.00,0.0,WeatherDisplay:10.37,2013-02-07 02:40:00,
2013-02-06 20:45:00,55.7,54.3,29.84,SE,146,13.8,13.8,95,0.00,CLR,,0.00,0.0,WeatherDisplay:10.37,2013-02-07 02:45:00,
2013-02-06 20:50:00,55.7,54.3,29.85,SE,135,11.5,11.5,95,0.00,CLR,,0.00,0.0,WeatherDisplay:10.37,2013-02-07 02:50:00,
2013-02-06 20:55:00,55.7,54.3,29.85,SE,126,11.5,11.5,95,0.00,CLR,,0.00,0.0,WeatherDisplay:10.37,2013-02-07 02:55:00,
2013-02-06 21:00:00,55.7,54.3,29.85,SE,126,8.1,8.1,95,0.00,CLR,,0.00,0.0,WeatherDisplay:10.37,2013-02-07 03:00:00,
2013-02-06 21:05:00,55.7,54.3,29.85,SE,143,10.4,10.4,95,0.00,CLR,,0.00,0.0,WeatherDisplay:10.37,2013-02-07 03:05:00,
2013-02-06 21:10:00,55.7,54.0,29.85,SE,146,12.7,12.7,94,0.00,CLR,,0.00,0.0,WeatherDisplay:10.37,2013-02-07 03:10:00,
2013-02-06 21:15:00,55.7,54.0,29.85,SE,129,11.5,11.5,94,0.00,CLR,,0.00,0.0,WeatherDisplay:10.37,2013-02-07 03:15:00,
2013-02-06 21:20:00,55.7,54.0,29.85,SE,138,10.4,10.4,94,0.00,CLR,,0.00,0.0,WeatherDisplay:10.37,2013-02-07 03:20:00,
2013-02-06 21:25:00,55.7,54.0,29.85,SSW,206,8.1,8.1,94,0.00,CLR,,0.00,0.0,WeatherDisplay:10.37,2013-02-07 03:25:00,
2013-02-06 21:30:00,55.6,53.9,29.85,ESE,121,9.2,9.2,94,0.00,CLR,,0.00,0.0,WeatherDisplay:10.37,2013-02-07 03:30:00,
2013-02-06 21:35:00,55.6,53.6,29.85,SE,126,10.4,10.4,93,0.00,CLR,,0.00,0.0,WeatherDisplay:10.37,2013-02-07 03:35:00,
2013-02-06 21:40:00,55.6,53.6,29.85,SE,129,10.4,10.4,93,0.00,CLR,,0.00,0.0,WeatherDisplay:10.37,2013-02-07 03:40:00,
2013-02-06 21:45:00,55.6,53.6,29.85,South,174,8.1,8.1,93,0.00,CLR,,0.00,0.0,WeatherDisplay:10.37,2013-02-07 03:45:00,
2013-02-06 21:50:00,55.6,53.6,29.85,East,101,8.1,8.1,93,0.00,CLR,,0.00,0.0,WeatherDisplay:10.37,2013-02-07 03:50:00,
2013-02-06 21:55:00,55.6,53.6,29.85,South,188,8.1,8.1,93,0.00,CLR,,0.00,0.0,WeatherDisplay:10.37,2013-02-07 03:55:00,
2013-02-06 22:00:00,55.5,53.2,29.85,SE,146,6.9,6.9,92,0.00,CLR,,0.00,0.0,WeatherDisplay:10.37,2013-02-07 04:00:00,
2013-02-06 22:05:00,55.6,53.3,29.85,SSE,160,8.1,8.1,92,0.00,CLR,,0.00,0.0,WeatherDisplay:10.37,2013-02-07 04:05:00,
2013-02-06 22:10:00,55.5,53.2,29.85,ESE,105,5.8,5.8,92,0.00,CLR,,0.00,0.0,WeatherDisplay:10.37,2013-02-07 04:10:00,
2013-02-06 22:15:00,55.5,53.2,29.85,ESE,123,6.9,6.9,92,0.00,CLR,,0.00,0.0,WeatherDisplay:10.37,2013-02-07 04:15:00,
2013-02-06 22:20:00,55.5,53.2,29.85,South,170,8.1,8.1,92,0.00,CLR,,0.00,0.0,WeatherDisplay:10.37,2013-02-07 04:20:00,
2013-02-06 22:25:00,55.5,53.2,29.85,SSE,150,6.9,6.9,92,0.00,CLR,,0.00,0.0,WeatherDisplay:10.37,2013-02-07 04:25:00,
2013-02-06 22:30:00,55.5,53.2,29.85,SSE,160,6.9,6.9,92,0.00,CLR,,0.00,0.0,WeatherDisplay:10.37,2013-02-07 04:30:00,
2013-02-06 22:35:00,55.6,53.3,29.86,SSE,168,9.2,9.2,92,0.00,CLR,,0.00,0.0,WeatherDisplay:10.37,2013-02-07 04:35:00,
2013-02-06 22:40:00,55.6,53.3,29.86,SE,136,6.9,6.9,92,0.00,CLR,,0.00,0.0,WeatherDisplay:10.37,2013-02-07 04:40:00,
2013-02-06 22:45:00,55.6,53.0,29.86,SSE,157,10.4,10.4,91,0.00,CLR,,0.00,0.0,WeatherDisplay:10.37,2013-02-07 04:45:00,
2013-02-06 22:50:00,55.7,53.1,29.86,SE,124,6.0,6.0,91,0.00,CLR,,0.00,0.0,WeatherDisplay:10.37,2013-02-07 04:50:00,
2013-02-06 22:55:00,55.7,52.8,29.86,SE,144,3.5,3.5,90,0.00,CLR,,0.00,0.0,WeatherDisplay:10.37,2013-02-07 04:55:00,
2013-02-06 23:00:00,55.7,52.8,29.86,SE,141,5.8,5.8,90,0.00,CLR,,0.00,0.0,WeatherDisplay:10.37,2013-02-07 05:00:00,
2013-02-06 23:05:00,55.7,52.8,29.85,SE,139,3.5,3.5,90,0.00,CLR,,0.00,0.0,WeatherDisplay:10.37,2013-02-07 05:05:00,
2013-02-06 23:10:00,55.7,52.8,29.85,SE,134,5.0,5.0,90,0.00,CLR,,0.00,0.0,WeatherDisplay:10.37,2013-02-07 05:10:00,
2013-02-06 23:15:00,55.6,52.7,29.85,SE,140,5.8,5.8,90,0.00,CLR,,0.00,0.0,WeatherDisplay:10.37,2013-02-07 05:15:00,
2013-02-06 23:20:00,55.6,52.7,29.85,SSW,208,5.8,5.8,90,0.00,CLR,,0.00,0.0,WeatherDisplay:10.37,2013-02-07 05:20:00,
2013-02-06 23:25:00,55.5,52.6,29.86,South,173,3.5,3.5,90,0.00,CLR,,0.00,0.0,WeatherDisplay:10.37,2013-02-07 05:25:00,
2013-02-06 23:30:00,55.5,52.6,29.86,SSE,149,5.8,5.8,90,0.00,CLR,,0.00,0.0,WeatherDisplay:10.37,2013-02-07 05:30:00,
2013-02-06 23:35:00,55.4,52.5,29.86,SE,131,2.3,0.0,90,0.00,CLR,,0.00,0.0,WeatherDisplay:10.37,2013-02-07 05:35:00,
2013-02-06 23:40:00,55.3,52.4,29.86,South,184,5.0,5.0,90,0.00,CLR,,0.00,0.0,WeatherDisplay:10.37,2013-02-07 05:40:00,
2013-02-06 23:45:00,55.2,52.3,29.86,SE,130,5.8,5.8,90,0.00,CLR,,0.00,0.0,WeatherDisplay:10.37,2013-02-07 05:45:00,
2013-02-06 23:50:00,55.2,52.3,29.86,South,190,4.0,4.0,90,0.00,CLR,,0.00,0.0,WeatherDisplay:10.37,2013-02-07 05:50:00,
2013-02-06 23:55:00,55.1,52.2,29.86,South,187,7.0,7.0,90,0.00,CLR,,0.00,0.0,WeatherDisplay:10.37,2013-02-07 05:55:00,